createdAt,value
2022-08-25T00:01:17.655Z,4.11
2022-08-25T00:03:19.295Z,4.11
2022-08-25T00:05:20.926Z,4.11
2022-08-25T00:07:22.404Z,4.1
2022-08-25T00:09:23.759Z,4.11
2022-08-25T00:11:24.766Z,4.11
2022-08-25T00:15:27.382Z,4.11
2022-08-25T00:19:30.645Z,4.11
2022-08-25T00:21:32.171Z,4.1
2022-08-25T00:23:33.087Z,4.11
2022-08-25T00:25:34.596Z,4.11
2022-08-25T00:27:35.764Z,4.11
2022-08-25T00:29:36.884Z,4.1
2022-08-25T00:31:38.456Z,4.1
2022-08-25T00:33:39.323Z,4.1
2022-08-25T00:37:42.416Z,4.1
2022-08-25T00:39:44.224Z,4.1
2022-08-25T00:41:46.047Z,4.1
2022-08-25T00:43:47.168Z,4.1
2022-08-25T00:45:48.412Z,4.1
2022-08-25T00:47:49.800Z,4.1
2022-08-25T00:49:50.784Z,4.1
2022-08-25T00:51:52.349Z,4.1
2022-08-25T00:53:53.696Z,4.1
2022-08-25T00:55:55.595Z,4.1
2022-08-25T00:59:58.647Z,4.1
2022-08-25T01:01:59.848Z,4.1
2022-08-25T01:04:01.370Z,4.1
2022-08-25T01:06:02.544Z,4.1
2022-08-25T01:08:05.871Z,4.1
2022-08-25T01:10:05.838Z,4.1
2022-08-25T01:12:07.468Z,4.1
2022-08-25T01:14:09.060Z,4.1
2022-08-25T01:16:10.788Z,4.1
2022-08-25T01:18:12.243Z,4.1
2022-08-25T01:20:13.819Z,4.1
2022-08-25T01:22:15.153Z,4.1
2022-08-25T01:24:17.011Z,4.1
2022-08-25T01:26:19.322Z,4.1
2022-08-25T01:28:20.199Z,4.1
2022-08-25T01:32:23.011Z,4.1
2022-08-25T01:34:24.318Z,4.1
2022-08-25T01:36:25.323Z,4.09
2022-08-25T01:38:26.727Z,4.1
2022-08-25T01:42:28.677Z,4.09
2022-08-25T01:44:29.734Z,4.09
2022-08-25T01:46:30.957Z,4.1
2022-08-25T01:48:32.458Z,4.09
2022-08-25T01:50:33.776Z,4.09
2022-08-25T01:52:34.854Z,4.09
2022-08-25T01:54:35.887Z,4.09
2022-08-25T01:56:37.551Z,4.09
2022-08-25T01:58:38.661Z,4.09
2022-08-25T02:00:39.626Z,4.09
2022-08-25T02:02:42.663Z,4.09
2022-08-25T02:04:44.529Z,4.09
2022-08-25T02:06:42.775Z,4.09
2022-08-25T02:08:44.050Z,4.09
2022-08-25T02:10:45.196Z,4.09
2022-08-25T02:14:47.813Z,4.09
2022-08-25T02:16:48.965Z,4.09
2022-08-25T02:18:50.822Z,4.09
2022-08-25T02:22:56.678Z,4.09
2022-08-25T02:24:55.287Z,4.08
2022-08-25T02:26:56.569Z,4.08
2022-08-25T02:28:57.504Z,4.09
2022-08-25T02:31:01.256Z,4.09
2022-08-25T02:33:00.368Z,4.09
2022-08-25T02:35:01.652Z,4.09
2022-08-25T02:37:03.091Z,4.08
2022-08-25T02:39:04.326Z,4.08
2022-08-25T02:41:05.508Z,4.08
2022-08-25T02:43:06.462Z,4.08
2022-08-25T02:45:07.654Z,4.08
2022-08-25T02:47:08.621Z,4.09
2022-08-25T02:49:10.264Z,4.08
2022-08-25T02:51:11.896Z,4.08
2022-08-25T02:53:13.690Z,4.08
2022-08-25T02:57:16.714Z,4.08
2022-08-25T02:59:17.753Z,4.08
2022-08-25T03:01:19.162Z,4.08
2022-08-25T03:05:21.957Z,4.08
2022-08-25T03:09:25.162Z,4.08
2022-08-25T03:13:27.299Z,4.08
2022-08-25T03:15:28.302Z,4.08
2022-08-25T03:17:29.490Z,4.08
2022-08-25T03:19:30.533Z,4.08
2022-08-25T03:23:33.448Z,4.08
2022-08-25T03:25:34.507Z,4.08
2022-08-25T03:27:36.268Z,4.08
2022-08-25T03:29:38.149Z,4.08
2022-08-25T03:31:39.582Z,4.08
2022-08-25T03:33:40.840Z,4.08
2022-08-25T03:35:42.453Z,4.08
2022-08-25T03:37:44.127Z,4.08
2022-08-25T03:39:45.518Z,4.08
2022-08-25T03:41:47.129Z,4.08
2022-08-25T03:43:48.905Z,4.08
2022-08-25T03:45:50.343Z,4.08
2022-08-25T03:47:52.067Z,4.08
2022-08-25T03:49:53.224Z,4.08
2022-08-25T03:51:54.841Z,4.08
2022-08-25T03:53:55.902Z,4.08
2022-08-25T03:55:57.018Z,4.08
2022-08-25T03:57:58.249Z,4.08
2022-08-25T03:59:59.377Z,4.07
2022-08-25T04:02:00.457Z,4.07
2022-08-25T04:06:03.331Z,4.08
2022-08-25T04:08:05.260Z,4.07
2022-08-25T04:10:05.999Z,4.07
2022-08-25T04:12:07.487Z,4.07
2022-08-25T04:14:09.035Z,4.07
2022-08-25T04:16:10.958Z,4.07
2022-08-25T04:18:12.107Z,4.07
2022-08-25T04:20:14.032Z,4.07
2022-08-25T04:22:14.777Z,4.07
2022-08-25T04:24:16.021Z,4.07
2022-08-25T04:26:17.896Z,4.07
2022-08-25T04:28:19.257Z,4.07
2022-08-25T04:32:22.084Z,4.07
2022-08-25T04:34:28.863Z,4.07
2022-08-25T04:36:25.697Z,4.07
2022-08-25T04:38:27.180Z,4.07
2022-08-25T04:40:29.258Z,4.07
2022-08-25T04:42:29.841Z,4.06
2022-08-25T04:44:31.144Z,4.06
2022-08-25T04:48:34.490Z,4.07
2022-08-25T04:50:35.650Z,4.07
2022-08-25T04:52:36.873Z,4.07
2022-08-25T04:54:38.264Z,4.07
2022-08-25T04:56:40.103Z,4.07
2022-08-25T04:58:41.521Z,4.06
2022-08-25T05:02:43.904Z,4.06
2022-08-25T05:04:45.440Z,4.06
2022-08-25T05:06:46.812Z,4.06
2022-08-25T05:08:47.739Z,4.06
2022-08-25T05:10:49.315Z,4.06
2022-08-25T05:12:50.609Z,4.06
2022-08-25T05:14:52.617Z,4.06
2022-08-25T05:16:53.503Z,4.06
2022-08-25T05:18:55.409Z,4.06
2022-08-25T05:20:57.021Z,4.06
2022-08-25T05:22:58.029Z,4.06
2022-08-25T05:24:59.877Z,4.06
2022-08-25T05:27:01.235Z,4.06
2022-08-25T05:29:02.853Z,4.06
2022-08-25T05:31:04.033Z,4.06
2022-08-25T05:33:04.879Z,4.07
2022-08-25T05:35:06.235Z,4.07
2022-08-25T05:37:10.371Z,4.08
2022-08-25T05:41:10.228Z,4.08
2022-08-25T05:43:11.981Z,4.09
2022-08-25T05:45:14.275Z,4.09
2022-08-25T05:47:14.260Z,4.09
2022-08-25T05:49:15.476Z,4.1
2022-08-25T05:51:16.520Z,4.1
2022-08-25T05:53:17.856Z,4.1
2022-08-25T05:55:18.975Z,4.11
2022-08-25T05:57:20.681Z,4.11
2022-08-25T05:59:21.668Z,4.11
2022-08-25T06:01:23.111Z,4.12
2022-08-25T06:02:06.736Z,4.12
2022-08-25T06:04:08.468Z,4.12
2022-08-25T06:06:10.547Z,4.13
2022-08-25T06:08:11.616Z,4.13
2022-08-25T06:10:13.210Z,4.14
2022-08-25T06:12:15.347Z,4.14
2022-08-25T06:14:17.342Z,4.14
2022-08-25T06:16:19.123Z,4.15
2022-08-25T06:18:20.788Z,4.15
2022-08-25T06:20:25.484Z,4.15
2022-08-25T06:24:26.204Z,4.16
2022-08-25T06:26:27.497Z,4.16
2022-08-25T06:30:31.157Z,4.16
2022-08-25T06:32:32.361Z,4.17
2022-08-25T06:34:33.739Z,4.16
2022-08-25T06:36:35.129Z,4.17
2022-08-25T06:38:35.980Z,4.17
2022-08-25T06:40:37.341Z,4.17
2022-08-25T06:42:39.089Z,4.17
2022-08-25T06:44:40.231Z,4.18
2022-08-25T06:46:41.740Z,4.18
2022-08-25T06:48:43.229Z,4.18
2022-08-25T06:50:44.804Z,4.18
2022-08-25T06:52:45.870Z,4.18
2022-08-25T06:56:49.709Z,4.19
2022-08-25T06:58:49.410Z,4.19
2022-08-25T07:00:50.577Z,4.19
2022-08-25T07:04:53.769Z,4.19
2022-08-25T07:06:54.697Z,4.19
2022-08-25T07:08:55.532Z,4.19
2022-08-25T07:10:56.552Z,4.19
2022-08-25T07:12:58.171Z,4.19
2022-08-25T07:15:10.273Z,4.19
2022-08-25T07:17:00.255Z,4.19
2022-08-25T07:19:02.155Z,4.19
2022-08-25T07:23:04.827Z,4.2
2022-08-25T07:25:05.625Z,4.2
2022-08-25T07:27:07.207Z,4.19
2022-08-25T07:29:08.734Z,4.2
2022-08-25T07:31:10.289Z,4.2
2022-08-25T07:33:11.984Z,4.2
2022-08-25T07:35:13.109Z,4.2
2022-08-25T07:39:15.888Z,4.2
2022-08-25T07:41:16.984Z,4.2
2022-08-25T07:43:18.363Z,4.2
2022-08-25T07:45:20.614Z,4.2
2022-08-25T07:49:23.061Z,4.2
2022-08-25T07:51:22.570Z,4.2
2022-08-25T07:55:24.936Z,4.2
2022-08-25T07:57:26.571Z,4.19
2022-08-25T07:59:27.292Z,4.19
2022-08-25T08:01:28.254Z,4.19
2022-08-25T08:05:30.773Z,4.19
2022-08-25T08:07:41.836Z,4.19
2022-08-25T08:11:34.924Z,4.19
2022-08-25T08:13:40.741Z,4.19
2022-08-25T08:15:36.986Z,4.19
2022-08-25T08:17:37.946Z,4.18
2022-08-25T08:21:40.270Z,4.19
2022-08-25T08:23:41.188Z,4.19
2022-08-25T08:25:42.258Z,4.19
2022-08-25T08:27:43.315Z,4.19
2022-08-25T08:29:44.943Z,4.18
2022-08-25T08:31:48.535Z,4.19
2022-08-25T08:33:47.367Z,4.18
2022-08-25T08:35:48.363Z,4.19
2022-08-25T08:37:49.181Z,4.18
2022-08-25T08:39:50.325Z,4.18
2022-08-25T08:42:09.986Z,4.18
2022-08-25T08:43:52.599Z,4.18
2022-08-25T08:47:55.154Z,4.18
2022-08-25T08:49:57.024Z,4.18
2022-08-25T08:51:58.612Z,4.18
2022-08-25T08:53:59.729Z,4.18
2022-08-25T08:56:00.820Z,4.18
2022-08-25T08:58:01.690Z,4.18
2022-08-25T09:00:03.010Z,4.18
2022-08-25T09:02:04.073Z,4.18
2022-08-25T09:04:05.649Z,4.18
2022-08-25T09:08:08.205Z,4.18
2022-08-25T09:10:09.002Z,4.18
2022-08-25T09:12:10.221Z,4.18
2022-08-25T09:14:11.647Z,4.17
2022-08-25T09:16:20.329Z,4.17
2022-08-25T09:20:18.487Z,4.18
2022-08-25T09:22:34.078Z,4.17
2022-08-25T09:24:17.122Z,4.18
2022-08-25T09:26:18.667Z,4.17
2022-08-25T09:28:19.601Z,4.17
2022-08-25T09:30:20.784Z,4.17
2022-08-25T09:32:22.376Z,4.17
2022-08-25T09:36:24.294Z,4.17
2022-08-25T09:38:25.240Z,4.17
2022-08-25T09:40:26.429Z,4.17
2022-08-25T09:42:28.369Z,4.17
2022-08-25T09:44:29.803Z,4.17
2022-08-25T09:46:31.590Z,4.17
2022-08-25T09:48:34.640Z,4.17
2022-08-25T09:50:34.743Z,4.17
2022-08-25T09:52:35.217Z,4.17
2022-08-25T09:54:40.932Z,4.17
2022-08-25T09:56:37.929Z,4.17
2022-08-25T09:58:39.018Z,4.17
2022-08-25T10:02:41.341Z,4.17
2022-08-25T10:04:43.042Z,4.17
2022-08-25T10:06:43.782Z,4.17
2022-08-25T10:08:45.177Z,4.17
2022-08-25T10:10:46.632Z,4.17
2022-08-25T10:12:48.756Z,4.17
2022-08-25T10:14:48.945Z,4.17
2022-08-25T10:18:51.219Z,4.17
2022-08-25T10:20:52.502Z,4.17
2022-08-25T10:22:53.379Z,4.17
2022-08-25T10:24:54.918Z,4.17
2022-08-25T10:26:56.578Z,4.16
2022-08-25T10:28:57.660Z,4.17
2022-08-25T10:30:58.482Z,4.17
2022-08-25T10:33:00.216Z,4.17
2022-08-25T10:35:01.671Z,4.16
2022-08-25T10:37:03.203Z,4.16
2022-08-25T10:39:04.303Z,4.17
2022-08-25T10:41:05.166Z,4.16
2022-08-25T10:45:07.779Z,4.16
2022-08-25T10:47:08.812Z,4.16
2022-08-25T10:49:10.242Z,4.16
2022-08-25T10:51:13.567Z,4.16
2022-08-25T10:53:12.277Z,4.16
2022-08-25T10:55:13.360Z,4.16
2022-08-25T10:57:14.237Z,4.16
2022-08-25T11:01:16.828Z,4.16
2022-08-25T11:03:17.829Z,4.16
2022-08-25T11:05:24.445Z,4.16
2022-08-25T11:07:20.577Z,4.16
2022-08-25T11:09:21.687Z,4.16
2022-08-25T11:11:22.523Z,4.16
2022-08-25T11:17:26.337Z,4.16
2022-08-25T11:19:27.634Z,4.16
2022-08-25T11:21:29.265Z,4.16
2022-08-25T11:23:30.222Z,4.16
2022-08-25T11:27:32.886Z,4.16
2022-08-25T11:29:33.745Z,4.16
2022-08-25T11:31:34.559Z,4.16
2022-08-25T11:33:35.528Z,4.16
2022-08-25T11:35:36.776Z,4.16
2022-08-25T11:37:38.205Z,4.16
2022-08-25T11:39:40.506Z,4.16
2022-08-25T11:41:42.079Z,4.16
2022-08-25T11:43:43.488Z,4.15
2022-08-25T11:45:45.677Z,4.16
2022-08-25T11:47:46.429Z,4.16
2022-08-25T11:49:47.299Z,4.16
2022-08-25T11:51:48.464Z,4.16
2022-08-25T11:53:50.170Z,4.15
2022-08-25T11:55:51.142Z,4.16
2022-08-25T11:59:53.254Z,4.15
2022-08-25T12:01:54.222Z,4.16
2022-08-25T12:03:55.923Z,4.15
2022-08-25T12:07:58.634Z,4.15
2022-08-25T12:10:00.169Z,4.16
2022-08-25T12:12:01.141Z,4.15
2022-08-25T12:14:02.599Z,4.15
2022-08-25T12:16:04.301Z,4.16
2022-08-25T12:18:07.459Z,4.15
2022-08-25T12:20:07.570Z,4.15
2022-08-25T12:22:08.369Z,4.15
2022-08-25T12:24:10.071Z,4.15
2022-08-25T12:26:11.616Z,4.15
2022-08-25T12:28:12.885Z,4.15
2022-08-25T12:30:18.444Z,4.15
2022-08-25T12:32:15.319Z,4.14
2022-08-25T12:34:16.461Z,4.15
2022-08-25T12:38:18.740Z,4.15
2022-08-25T12:42:22.041Z,4.15
2022-08-25T12:44:22.581Z,4.15
2022-08-25T12:46:23.670Z,4.14
2022-08-25T12:49:08.203Z,4.15
2022-08-25T12:51:09.362Z,4.14
2022-08-25T12:53:11.096Z,4.14
2022-08-25T12:55:12.257Z,4.14
2022-08-25T12:57:13.155Z,4.14
2022-08-25T12:59:14.787Z,4.14
2022-08-25T13:03:17.739Z,4.14
2022-08-25T13:05:18.541Z,4.14
2022-08-25T13:07:19.363Z,4.14
2022-08-25T13:09:20.593Z,4.14
2022-08-25T13:11:21.865Z,4.14
2022-08-25T13:13:22.635Z,4.14
2022-08-25T13:17:25.192Z,4.14
2022-08-25T13:19:26.770Z,4.14
2022-08-25T13:21:28.167Z,4.14
2022-08-25T13:23:29.576Z,4.14
2022-08-25T13:25:32.054Z,4.14
2022-08-25T13:27:31.680Z,4.14
2022-08-25T13:29:35.143Z,4.14
2022-08-25T13:31:34.795Z,4.14
2022-08-25T13:35:37.317Z,4.14
2022-08-25T13:37:38.896Z,4.14
2022-08-25T13:39:55.212Z,4.14
2022-08-25T13:41:41.944Z,4.14
2022-08-25T13:43:42.989Z,4.14
2022-08-25T13:45:43.916Z,4.14
2022-08-25T13:47:45.942Z,4.14
2022-08-25T13:49:46.853Z,4.14
2022-08-25T13:51:48.082Z,4.14
2022-08-25T13:53:49.525Z,4.14
2022-08-25T13:55:50.594Z,4.14
2022-08-25T13:57:51.093Z,4.14
2022-08-25T14:01:52.970Z,4.14
2022-08-25T14:03:54.412Z,4.16
2022-08-25T14:05:55.731Z,4.15
2022-08-25T14:08:09.080Z,4.17
2022-08-25T14:09:58.160Z,4.17
2022-08-25T14:11:59.296Z,4.17
2022-08-25T14:16:02.217Z,4.17
2022-08-25T14:18:03.886Z,4.18
2022-08-25T14:20:04.989Z,4.18
2022-08-25T14:22:06.346Z,4.18
2022-08-25T14:24:08.026Z,4.18
2022-08-25T14:26:09.543Z,4.18
2022-08-25T14:28:13.447Z,4.18
2022-08-25T14:34:15.168Z,4.19
2022-08-25T14:36:18.661Z,4.19
2022-08-25T14:38:17.996Z,4.19
2022-08-25T14:40:19.524Z,4.19
2022-08-25T14:44:21.959Z,4.19
2022-08-25T14:46:22.785Z,4.19
2022-08-25T14:48:24.431Z,4.19
2022-08-25T14:50:26.563Z,4.19
2022-08-25T14:52:28.031Z,4.19
2022-08-25T14:54:29.649Z,4.19
2022-08-25T14:56:30.419Z,4.19
2022-08-25T15:00:32.237Z,4.2
2022-08-25T15:02:37.565Z,4.19
2022-08-25T15:06:36.491Z,4.19
2022-08-25T15:08:37.776Z,4.19
2022-08-25T15:10:39.339Z,4.19
2022-08-25T15:12:47.162Z,4.19
2022-08-25T15:16:42.639Z,4.18
2022-08-25T15:18:44.278Z,4.18
2022-08-25T15:20:46.377Z,4.19
2022-08-25T15:22:47.691Z,4.18
2022-08-25T15:28:50.697Z,4.18
2022-08-25T15:32:52.744Z,4.18
2022-08-25T15:34:54.024Z,4.18
2022-08-25T15:36:55.251Z,4.18
2022-08-25T15:38:56.294Z,4.18
2022-08-25T15:42:58.875Z,4.18
2022-08-25T15:47:02.246Z,4.18
2022-08-25T15:49:03.383Z,4.18
2022-08-25T15:53:05.748Z,4.18
2022-08-25T15:55:06.804Z,4.18
2022-08-25T15:57:08.746Z,4.17
2022-08-25T15:59:09.259Z,4.17
2022-08-25T16:01:10.993Z,4.17
2022-08-25T16:05:13.496Z,4.17
2022-08-25T16:07:14.317Z,4.17
2022-08-25T16:09:15.588Z,4.18
2022-08-25T16:11:17.110Z,4.17
2022-08-25T16:15:19.169Z,4.17
2022-08-25T16:17:20.048Z,4.17
2022-08-25T16:21:22.868Z,4.17
2022-08-25T16:23:24.444Z,4.17
2022-08-25T16:25:25.850Z,4.17
2022-08-25T16:27:27.342Z,4.17
2022-08-25T16:31:29.713Z,4.17
2022-08-25T16:33:32.079Z,4.17
2022-08-25T16:37:33.063Z,4.17
2022-08-25T16:39:33.955Z,4.17
2022-08-25T16:41:35.689Z,4.17
2022-08-25T16:43:36.611Z,4.17
2022-08-25T16:45:37.497Z,4.17
2022-08-25T16:47:38.450Z,4.17
2022-08-25T16:49:39.243Z,4.17
2022-08-25T16:51:40.478Z,4.17
2022-08-25T16:53:41.791Z,4.17
2022-08-25T16:55:43.185Z,4.17
2022-08-25T16:57:44.069Z,4.17
2022-08-25T16:59:45.452Z,4.17
2022-08-25T17:03:47.868Z,4.17
2022-08-25T17:05:49.133Z,4.17
2022-08-25T17:07:49.978Z,4.17
2022-08-25T17:09:51.556Z,4.17
2022-08-25T17:13:53.882Z,4.17
2022-08-25T17:15:55.677Z,4.16
2022-08-25T17:17:56.850Z,4.16
2022-08-25T17:19:58.302Z,4.17
2022-08-25T17:21:59.291Z,4.17
2022-08-25T17:24:00.790Z,4.17
2022-08-25T17:26:02.182Z,4.17
2022-08-25T17:28:03.766Z,4.16
2022-08-25T17:30:04.841Z,4.16
2022-08-25T17:32:06.457Z,4.16
2022-08-25T17:34:07.497Z,4.16
2022-08-25T17:36:08.650Z,4.16
2022-08-25T17:38:09.811Z,4.16
2022-08-25T17:40:11.520Z,4.16
2022-08-25T17:42:12.287Z,4.16
2022-08-25T17:46:15.242Z,4.16
2022-08-25T17:48:16.464Z,4.16
2022-08-25T17:50:18.213Z,4.16
2022-08-25T17:52:21.536Z,4.16
2022-08-25T17:56:22.376Z,4.16
2022-08-25T17:58:24.116Z,4.16
2022-08-25T18:02:27.267Z,4.16
2022-08-25T18:04:29.612Z,4.16
2022-08-25T18:06:30.227Z,4.16
2022-08-25T18:08:32.149Z,4.16
2022-08-25T18:10:32.861Z,4.16
2022-08-25T18:12:34.526Z,4.16
2022-08-25T18:14:35.430Z,4.16
2022-08-25T18:16:36.453Z,4.16
2022-08-25T18:18:37.384Z,4.16
2022-08-25T18:20:39.150Z,4.16
2022-08-25T18:24:42.208Z,4.16
2022-08-25T18:28:45.315Z,4.16
2022-08-25T18:30:46.941Z,4.16
2022-08-25T18:32:47.839Z,4.15
2022-08-25T18:34:49.197Z,4.16
2022-08-25T18:38:51.903Z,4.16
2022-08-25T18:40:52.798Z,4.16
2022-08-25T18:42:54.174Z,4.16
2022-08-25T18:44:55.033Z,4.15
2022-08-25T18:48:57.282Z,4.16
2022-08-25T18:50:58.808Z,4.15
2022-08-25T18:55:00.985Z,4.16
2022-08-25T18:57:02.464Z,4.15
2022-08-25T18:59:03.607Z,4.15
2022-08-25T19:01:05.364Z,4.15
2022-08-25T19:03:07.132Z,4.15
2022-08-25T19:05:10.546Z,4.15
2022-08-25T19:07:09.906Z,4.15
2022-08-25T19:11:11.846Z,4.15
2022-08-25T19:13:13.134Z,4.15
2022-08-25T19:15:14.908Z,4.15
2022-08-25T19:17:15.713Z,4.15
2022-08-25T19:19:17.046Z,4.15
2022-08-25T19:21:18.819Z,4.15
2022-08-25T19:23:19.819Z,4.15
2022-08-25T19:25:21.366Z,4.15
2022-08-25T19:27:22.330Z,4.15
2022-08-25T19:29:23.312Z,4.15
2022-08-25T19:31:24.388Z,4.15
2022-08-25T19:33:31.277Z,4.15
2022-08-25T19:34:09.970Z,4.14
2022-08-25T19:36:11.533Z,4.15
2022-08-25T19:38:20.012Z,4.14
2022-08-25T19:40:14.566Z,4.14
2022-08-25T19:42:35.501Z,4.14
2022-08-25T19:44:17.077Z,4.14
2022-08-25T19:48:19.783Z,4.14
2022-08-25T19:50:21.159Z,4.14
2022-08-25T19:52:22.899Z,4.15
2022-08-25T19:54:24.226Z,4.14
2022-08-25T19:56:25.162Z,4.14
2022-08-25T19:58:26.189Z,4.14
2022-08-25T20:02:29.733Z,4.14
2022-08-25T20:04:30.421Z,4.14
2022-08-25T20:06:32.223Z,4.14
2022-08-25T20:08:33.370Z,4.14
2022-08-25T20:10:39.570Z,4.14
2022-08-25T20:14:38.297Z,4.14
2022-08-25T20:16:39.847Z,4.14
2022-08-25T20:18:41.354Z,4.14
2022-08-25T20:20:42.989Z,4.14
2022-08-25T20:22:44.749Z,4.14
2022-08-25T20:24:45.900Z,4.14
2022-08-25T20:26:47.313Z,4.14
2022-08-25T20:30:50.435Z,4.14
2022-08-25T20:32:51.973Z,4.14
2022-08-25T20:36:54.925Z,4.14
2022-08-25T20:38:56.289Z,4.14
2022-08-25T20:40:57.713Z,4.13
2022-08-25T20:42:58.742Z,4.14
2022-08-25T20:47:02.191Z,4.13
2022-08-25T20:49:03.668Z,4.14
2022-08-25T20:51:04.583Z,4.14
2022-08-25T20:53:05.658Z,4.14
2022-08-25T20:55:06.926Z,4.13
2022-08-25T20:57:08.440Z,4.13
2022-08-25T20:59:10.286Z,4.13
2022-08-25T21:03:12.762Z,4.13
2022-08-25T21:05:14.497Z,4.13
2022-08-25T21:07:16.047Z,4.13
2022-08-25T21:09:17.649Z,4.13
2022-08-25T21:11:18.595Z,4.13
2022-08-25T21:13:20.052Z,4.13
2022-08-25T21:17:23.630Z,4.13
2022-08-25T21:19:26.507Z,4.13
2022-08-25T21:21:26.067Z,4.13
2022-08-25T21:23:27.301Z,4.13
2022-08-25T21:25:28.578Z,4.13
2022-08-25T21:29:31.890Z,4.13
2022-08-25T21:31:33.130Z,4.13
2022-08-25T21:33:34.843Z,4.13
2022-08-25T21:37:37.772Z,4.13
2022-08-25T21:39:39.036Z,4.12
2022-08-25T21:41:40.418Z,4.13
2022-08-25T21:43:42.094Z,4.12
2022-08-25T21:45:46.542Z,4.13
2022-08-25T21:47:44.384Z,4.12
2022-08-25T21:49:45.609Z,4.12
2022-08-25T21:51:46.556Z,4.12
2022-08-25T21:55:49.101Z,4.12
2022-08-25T21:57:50.384Z,4.12
2022-08-25T21:59:52.189Z,4.12
2022-08-25T22:01:53.146Z,4.12
2022-08-25T22:03:54.061Z,4.12
2022-08-25T22:05:54.931Z,4.12
2022-08-25T22:07:56.693Z,4.12
2022-08-25T22:09:57.693Z,4.12
2022-08-25T22:11:59.138Z,4.12
2022-08-25T22:14:00.613Z,4.12
2022-08-25T22:16:02.103Z,4.12
2022-08-25T22:18:03.397Z,4.12
2022-08-25T22:20:04.308Z,4.12
2022-08-25T22:22:05.629Z,4.12
2022-08-25T22:26:08.485Z,4.12
2022-08-25T22:30:11.798Z,4.12
2022-08-25T22:32:13.600Z,4.12
2022-08-25T22:34:14.484Z,4.12
2022-08-25T22:38:17.250Z,4.12
2022-08-25T22:40:18.558Z,4.12
2022-08-25T22:44:21.285Z,4.12
2022-08-25T22:46:22.512Z,4.12
2022-08-25T22:48:23.432Z,4.12
2022-08-25T22:50:24.483Z,4.12
2022-08-25T22:54:28.189Z,4.12
2022-08-25T22:56:29.656Z,4.12
2022-08-25T22:58:30.542Z,4.11
2022-08-25T23:00:31.943Z,4.11
2022-08-25T23:02:33.391Z,4.12
2022-08-25T23:04:35.121Z,4.11
2022-08-25T23:06:35.971Z,4.11
2022-08-25T23:08:39.048Z,4.11
2022-08-25T23:10:38.329Z,4.11
2022-08-25T23:12:39.528Z,4.11
2022-08-25T23:14:42.174Z,4.12
2022-08-25T23:16:42.079Z,4.11
2022-08-25T23:18:43.843Z,4.11
2022-08-25T23:20:44.928Z,4.11
2022-08-25T23:24:46.463Z,4.11
2022-08-25T23:26:48.584Z,4.11
2022-08-25T23:28:50.018Z,4.11
2022-08-25T23:32:52.662Z,4.11
2022-08-25T23:36:54.750Z,4.11
2022-08-25T23:38:55.646Z,4.11
2022-08-25T23:42:58.283Z,4.11
2022-08-25T23:45:00.025Z,4.11
2022-08-25T23:47:00.996Z,4.11
2022-08-25T23:49:02.279Z,4.11
2022-08-25T23:53:05.507Z,4.11
2022-08-25T23:55:07.102Z,4.11
2022-08-25T23:57:08.782Z,4.1
2022-08-25T23:59:10.507Z,4.11
